createdAt,value
2022-12-27T00:00:25.316Z,89.94
2022-12-27T00:02:58.307Z,91.31
2022-12-27T00:05:31.220Z,89.69
2022-12-27T00:08:05.869Z,89.81
2022-12-27T00:10:42.430Z,90.25
2022-12-27T00:13:15.575Z,89.88
2022-12-27T00:15:48.537Z,90.47
2022-12-27T00:18:21.387Z,91.04
2022-12-27T00:20:58.328Z,90.54
2022-12-27T00:23:35.180Z,90.83
2022-12-27T00:26:12.011Z,91.51
2022-12-27T00:28:45.210Z,91.49
2022-12-27T00:31:18.997Z,91.43
2022-12-27T00:33:54.768Z,91.22
2022-12-27T00:36:29.686Z,91.87
2022-12-27T00:39:04.923Z,91.61
2022-12-27T00:41:37.727Z,92.31
2022-12-27T00:44:10.568Z,91.96
2022-12-27T00:46:43.463Z,92.38
2022-12-27T00:49:16.301Z,92.50
2022-12-27T00:51:49.245Z,93.08
2022-12-27T00:54:23.776Z,92.84
2022-12-27T00:56:56.577Z,93.42
2022-12-27T00:59:29.392Z,93.01
2022-12-27T01:02:02.778Z,92.94
2022-12-27T01:04:35.726Z,92.73
2022-12-27T01:07:08.714Z,93.67
2022-12-27T01:09:42.972Z,93.64
2022-12-27T01:12:15.816Z,93.59
2022-12-27T01:14:48.609Z,93.62
2022-12-27T01:17:21.543Z,93.40
2022-12-27T01:19:54.383Z,94.46
2022-12-27T01:22:27.377Z,94.21
2022-12-27T01:25:02.001Z,94.21
2022-12-27T01:27:34.861Z,95.02
2022-12-27T01:30:09.326Z,94.82
2022-12-27T01:32:42.421Z,95.04
2022-12-27T01:35:15.249Z,95.02
2022-12-27T01:37:48.158Z,94.70
2022-12-27T01:40:22.380Z,95.30
2022-12-27T01:42:55.432Z,95.79
2022-12-27T01:45:29.962Z,95.61
2022-12-27T01:48:10.659Z,96.02
2022-12-27T01:50:46.518Z,95.73
2022-12-27T01:53:22.487Z,96.29
2022-12-27T01:55:59.857Z,96.16
2022-12-27T01:58:38.951Z,97.09
2022-12-27T02:01:15.918Z,96.94
2022-12-27T02:03:54.781Z,96.91
2022-12-27T02:06:31.051Z,97.47
2022-12-27T02:09:22.173Z,97.65
2022-12-27T02:12:01.855Z,97.59
2022-12-27T02:14:38.924Z,97.51
2022-12-27T02:17:16.171Z,98.18
2022-12-27T02:19:57.502Z,97.58
2022-12-27T02:23:23.641Z,97.97
2022-12-27T02:26:14.780Z,97.75
2022-12-27T02:29:06.749Z,98.13
2022-12-27T02:31:45.655Z,98.20
2022-12-27T02:34:23.895Z,99.11
2022-12-27T02:37:02.511Z,98.99
2022-12-27T02:39:40.209Z,98.78
2022-12-27T02:42:33.503Z,98.89
2022-12-27T02:45:37.159Z,99.34
2022-12-27T02:48:33.272Z,98.78
2022-12-27T02:51:40.676Z,99.78
2022-12-27T02:54:30.105Z,99.52
2022-12-27T02:57:12.039Z,99.89
2022-12-27T03:00:29.199Z,99.78
2022-12-27T03:03:24.694Z,99.46
2022-12-27T03:06:41.424Z,99.75
2022-12-27T03:09:57.557Z,99.99
2022-12-27T03:13:03.020Z,100.00
2022-12-27T03:15:58.503Z,100.00
2022-12-27T03:18:47.545Z,100.00
2022-12-27T03:21:43.049Z,100.00
2022-12-27T03:24:36.816Z,100.00
2022-12-27T03:27:18.252Z,100.00
2022-12-27T03:30:12.526Z,100.00
2022-12-27T03:33:08.791Z,100.00
2022-12-27T03:35:44.116Z,100.00
2022-12-27T03:38:16.464Z,100.00
2022-12-27T03:41:11.191Z,100.00
2022-12-27T03:43:45.069Z,100.00
2022-12-27T03:46:34.460Z,100.00
2022-12-27T03:49:14.656Z,100.00
2022-12-27T03:51:52.270Z,100.00
2022-12-27T03:54:28.099Z,100.00
2022-12-27T03:57:06.471Z,100.00
2022-12-27T03:59:39.601Z,100.00
2022-12-27T04:02:13.396Z,100.00
2022-12-27T04:04:47.946Z,100.00
2022-12-27T04:07:20.985Z,100.00
2022-12-27T04:10:11.892Z,100.00
2022-12-27T04:13:02.452Z,100.00
2022-12-27T04:15:52.737Z,100.00
2022-12-27T04:18:43.036Z,100.00
2022-12-27T04:21:34.594Z,100.00
2022-12-27T04:24:25.367Z,100.00
2022-12-27T04:27:15.756Z,100.00
2022-12-27T04:30:05.949Z,100.00
2022-12-27T04:32:56.283Z,100.00
2022-12-27T04:35:29.136Z,100.00
2022-12-27T04:38:03.448Z,100.00
2022-12-27T04:40:53.694Z,100.00
2022-12-27T04:43:44.102Z,100.00
2022-12-27T04:46:47.878Z,100.00
2022-12-27T04:49:41.355Z,100.00
2022-12-27T04:52:36.134Z,100.00
2022-12-27T04:55:18.459Z,100.00
2022-12-27T04:57:51.797Z,100.00
2022-12-27T05:00:46.152Z,100.00
2022-12-27T05:03:20.716Z,100.00
2022-12-27T05:05:54.351Z,100.00
2022-12-27T05:08:45.829Z,100.00
2022-12-27T05:11:37.410Z,100.00
2022-12-27T05:14:14.400Z,100.00
2022-12-27T05:16:47.514Z,100.00
2022-12-27T05:19:20.313Z,100.00
2022-12-27T05:22:07.092Z,100.00
2022-12-27T05:24:56.572Z,100.00
2022-12-27T05:27:30.816Z,100.00
2022-12-27T05:30:03.896Z,100.00
2022-12-27T05:32:36.916Z,100.00
2022-12-27T05:35:10.113Z,100.00
2022-12-27T05:37:42.962Z,100.00
2022-12-27T05:40:16.349Z,100.00
2022-12-27T05:42:50.693Z,100.00
2022-12-27T05:45:23.558Z,100.00
2022-12-27T05:47:56.673Z,100.00
2022-12-27T05:50:29.445Z,100.00
2022-12-27T05:53:15.847Z,100.00
2022-12-27T05:55:54.866Z,100.00
2022-12-27T05:58:29.650Z,100.00
2022-12-27T06:01:08.168Z,100.00
2022-12-27T06:03:41.070Z,100.00
2022-12-27T06:06:14.646Z,100.00
2022-12-27T06:08:47.457Z,100.00
2022-12-27T06:11:20.786Z,100.00
2022-12-27T06:13:55.109Z,100.00
2022-12-27T06:16:28.302Z,100.00
2022-12-27T06:19:01.388Z,100.00
2022-12-27T06:21:34.181Z,100.00
2022-12-27T06:24:07.662Z,100.00
2022-12-27T06:26:42.163Z,100.00
2022-12-27T06:29:16.817Z,100.00
2022-12-27T06:31:49.882Z,100.00
2022-12-27T06:34:22.741Z,100.00
2022-12-27T06:36:55.742Z,100.00
2022-12-27T06:39:28.499Z,100.00
2022-12-27T06:42:01.270Z,100.00
2022-12-27T06:44:35.459Z,100.00
2022-12-27T06:47:08.313Z,100.00
2022-12-27T06:49:41.274Z,100.00
2022-12-27T06:52:14.034Z,100.00
2022-12-27T06:54:47.057Z,100.00
2022-12-27T06:57:19.858Z,100.00
2022-12-27T06:59:54.365Z,100.00
2022-12-27T07:02:27.297Z,100.00
2022-12-27T07:05:00.157Z,100.00
2022-12-27T07:07:33.183Z,100.00
2022-12-27T07:10:06.972Z,100.00
2022-12-27T07:12:39.757Z,100.00
2022-12-27T07:15:13.892Z,100.00
2022-12-27T07:17:46.882Z,100.00
2022-12-27T07:20:19.804Z,100.00
2022-12-27T07:22:52.591Z,100.00
2022-12-27T07:25:25.404Z,100.00
2022-12-27T07:27:58.190Z,100.00
2022-12-27T07:30:32.388Z,100.00
2022-12-27T07:33:05.559Z,100.00
2022-12-27T07:35:42.178Z,100.00
2022-12-27T07:38:18.062Z,100.00
2022-12-27T07:40:50.885Z,100.00
2022-12-27T07:43:23.707Z,100.00
2022-12-27T07:46:04.047Z,100.00
2022-12-27T07:48:37.248Z,100.00
2022-12-27T07:51:10.550Z,100.00
2022-12-27T07:53:43.682Z,100.00
2022-12-27T07:56:25.260Z,100.00
2022-12-27T07:59:00.718Z,100.00
2022-12-27T08:02:03.905Z,100.00
2022-12-27T08:04:38.599Z,100.00
2022-12-27T08:07:16.644Z,100.00
2022-12-27T08:09:50.037Z,100.00
2022-12-27T08:12:22.828Z,100.00
2022-12-27T08:14:55.677Z,100.00
2022-12-27T08:17:29.934Z,100.00
2022-12-27T08:20:02.990Z,100.00
2022-12-27T08:22:35.878Z,100.00
2022-12-27T08:25:09.906Z,100.00
2022-12-27T08:27:42.674Z,100.00
2022-12-27T08:30:15.533Z,100.00
2022-12-27T08:32:50.749Z,100.00
2022-12-27T08:35:51.560Z,100.00
2022-12-27T08:38:17.641Z,100.00
2022-12-27T08:40:50.609Z,100.00
2022-12-27T08:43:23.440Z,100.00
2022-12-27T08:46:02.437Z,100.00
2022-12-27T08:48:37.772Z,100.00
2022-12-27T08:51:13.840Z,100.00
2022-12-27T08:53:50.149Z,100.00
2022-12-27T08:56:22.922Z,100.00
2022-12-27T08:58:55.879Z,100.00
2022-12-27T09:01:28.785Z,100.00
2022-12-27T09:04:02.972Z,100.00
2022-12-27T09:06:35.839Z,100.00
2022-12-27T09:09:09.017Z,100.00
2022-12-27T09:11:42.048Z,100.00
2022-12-27T09:14:14.796Z,100.00
2022-12-27T09:16:47.564Z,100.00
2022-12-27T09:19:21.717Z,100.00
2022-12-27T09:21:54.537Z,100.00
2022-12-27T09:24:27.324Z,100.00
2022-12-27T09:27:00.099Z,100.00
2022-12-27T09:29:32.921Z,100.00
2022-12-27T09:32:06.217Z,100.00
2022-12-27T09:34:40.348Z,100.00
2022-12-27T09:37:13.327Z,100.00
2022-12-27T09:39:46.094Z,100.00
2022-12-27T09:42:50.740Z,100.00
2022-12-27T09:45:34.998Z,100.00
2022-12-27T09:48:13.292Z,100.00
2022-12-27T09:50:52.022Z,100.00
2022-12-27T09:53:34.969Z,100.00
2022-12-27T09:56:09.331Z,100.00
2022-12-27T09:58:48.807Z,100.00
2022-12-27T10:01:24.943Z,100.00
2022-12-27T10:03:58.816Z,100.00
2022-12-27T10:06:48.348Z,99.92
2022-12-27T10:09:33.194Z,99.74
2022-12-27T10:12:17.101Z,99.56
2022-12-27T10:15:04.299Z,100.00
2022-12-27T10:17:53.119Z,99.01
2022-12-27T10:20:36.472Z,98.89
2022-12-27T10:23:16.124Z,96.83
2022-12-27T10:25:54.501Z,97.04
2022-12-27T10:28:40.479Z,97.72
2022-12-27T10:31:15.918Z,96.93
2022-12-27T10:33:51.296Z,96.73
2022-12-27T10:36:27.300Z,96.54
2022-12-27T10:39:11.993Z,96.44
2022-12-27T10:41:52.647Z,96.76
2022-12-27T10:44:25.902Z,97.33
2022-12-27T10:46:58.831Z,95.09
2022-12-27T10:49:33.346Z,94.30
2022-12-27T10:52:11.224Z,94.60
2022-12-27T10:54:55.606Z,94.86
2022-12-27T10:57:30.507Z,94.09
2022-12-27T11:00:17.919Z,92.98
2022-12-27T11:02:52.226Z,93.09
2022-12-27T11:05:26.761Z,92.08
2022-12-27T11:08:01.113Z,92.33
2022-12-27T11:10:35.228Z,90.39
2022-12-27T11:13:19.288Z,91.64
2022-12-27T11:15:59.002Z,91.91
2022-12-27T11:18:37.251Z,91.29
2022-12-27T11:21:23.865Z,91.13
2022-12-27T11:24:03.124Z,90.57
2022-12-27T11:26:53.680Z,89.78
2022-12-27T11:29:30.656Z,90.09
2022-12-27T11:32:08.607Z,89.34
2022-12-27T11:34:46.618Z,90.37
2022-12-27T11:37:21.741Z,89.01
2022-12-27T11:39:55.974Z,88.86
2022-12-27T11:42:38.526Z,89.31
2022-12-27T11:45:16.250Z,89.01
2022-12-27T11:47:54.299Z,88.06
2022-12-27T11:50:41.452Z,87.72
2022-12-27T11:53:40.975Z,88.52
2022-12-27T11:56:20.064Z,86.89
2022-12-27T11:59:15.866Z,88.03
2022-12-27T12:02:06.292Z,87.62
2022-12-27T12:05:00.827Z,86.75
2022-12-27T12:07:47.839Z,87.78
2022-12-27T12:10:33.592Z,85.98
2022-12-27T12:13:36.467Z,84.79
2022-12-27T12:16:45.701Z,85.04
2022-12-27T12:19:31.674Z,86.14
2022-12-27T12:22:23.645Z,87.09
2022-12-27T12:25:32.375Z,85.75
2022-12-27T12:31:55.141Z,83.59
2022-12-27T12:34:43.603Z,83.67
2022-12-27T12:37:31.390Z,83.67
2022-12-27T12:40:26.716Z,83.25
2022-12-27T12:43:16.055Z,82.75
2022-12-27T12:46:02.739Z,83.00
2022-12-27T12:48:48.293Z,83.22
2022-12-27T12:51:43.835Z,81.27
2022-12-27T12:54:32.158Z,81.79
2022-12-27T12:57:22.831Z,81.62
2022-12-27T13:00:25.471Z,80.14
2022-12-27T13:03:22.344Z,80.52
2022-12-27T13:06:05.784Z,80.15
2022-12-27T13:08:48.627Z,79.42
2022-12-27T13:11:38.962Z,78.52
2022-12-27T13:14:29.836Z,79.88
2022-12-27T13:17:09.211Z,80.47
2022-12-27T13:20:16.121Z,80.80
2022-12-27T13:23:04.477Z,80.64
2022-12-27T13:25:45.714Z,80.61
2022-12-27T13:28:36.205Z,81.32
2022-12-27T13:31:24.164Z,80.18
2022-12-27T13:34:08.966Z,81.37
2022-12-27T13:36:54.393Z,82.00
2022-12-27T13:39:40.946Z,82.71
2022-12-27T13:42:36.096Z,82.30
2022-12-27T13:45:27.373Z,82.46
2022-12-27T13:48:12.703Z,81.80
2022-12-27T13:50:56.428Z,83.20
2022-12-27T13:54:01.254Z,83.43
2022-12-27T13:56:54.930Z,83.72
2022-12-27T13:59:52.679Z,83.32
2022-12-27T14:02:53.353Z,84.96
2022-12-27T14:06:03.843Z,82.94
2022-12-27T14:08:55.253Z,83.20
2022-12-27T14:11:39.352Z,83.28
2022-12-27T14:14:17.409Z,83.31
2022-12-27T14:17:02.674Z,83.06
2022-12-27T14:19:55.166Z,83.83
2022-12-27T14:23:01.774Z,84.51
2022-12-27T14:26:12.567Z,84.34
2022-12-27T14:29:21.995Z,83.71
2022-12-27T14:32:25.583Z,84.96
2022-12-27T14:35:31.650Z,83.78
2022-12-27T14:38:20.049Z,84.87
2022-12-27T14:41:11.042Z,85.58
2022-12-27T14:44:05.954Z,85.31
2022-12-27T14:46:50.120Z,84.65
2022-12-27T14:49:37.040Z,85.52
2022-12-27T14:52:28.354Z,85.09
2022-12-27T14:55:19.597Z,85.96
2022-12-27T14:57:56.587Z,86.55
2022-12-27T15:00:30.969Z,85.93
2022-12-27T15:03:16.037Z,86.64
2022-12-27T15:05:57.759Z,86.64
2022-12-27T15:08:36.841Z,87.06
2022-12-27T15:11:23.188Z,88.57
2022-12-27T15:14:00.986Z,88.77
2022-12-27T15:16:42.501Z,87.45
2022-12-27T15:19:25.977Z,87.68
2022-12-27T15:22:02.952Z,88.39
2022-12-27T15:24:40.397Z,88.75
2022-12-27T15:27:20.001Z,87.74
2022-12-27T15:30:02.664Z,88.41
2022-12-27T15:32:45.916Z,87.72
2022-12-27T15:35:35.484Z,88.88
2022-12-27T15:38:15.506Z,88.01
2022-12-27T15:40:55.667Z,89.16
2022-12-27T15:43:36.098Z,89.04
2022-12-27T15:46:14.796Z,88.62
2022-12-27T15:49:01.600Z,89.32
2022-12-27T15:51:37.370Z,89.94
2022-12-27T15:54:20.971Z,89.85
2022-12-27T15:57:01.676Z,89.34
2022-12-27T15:59:41.262Z,89.70
2022-12-27T16:02:26.062Z,88.72
2022-12-27T16:05:02.265Z,88.64
2022-12-27T16:07:36.757Z,89.17
2022-12-27T16:10:42.672Z,89.12
2022-12-27T16:13:34.498Z,88.24
2022-12-27T16:16:34.420Z,88.14
2022-12-27T16:19:17.947Z,87.54
2022-12-27T16:21:50.746Z,87.70
2022-12-27T16:24:25.730Z,87.50
2022-12-27T16:27:01.022Z,87.52
2022-12-27T16:29:34.690Z,87.41
2022-12-27T16:32:17.613Z,86.91
2022-12-27T16:34:54.517Z,87.31
2022-12-27T16:37:29.109Z,86.64
2022-12-27T16:40:16.593Z,86.70
2022-12-27T16:43:07.859Z,87.76
2022-12-27T16:45:48.007Z,86.43
2022-12-27T16:48:26.783Z,87.03
2022-12-27T16:51:07.410Z,85.88
2022-12-27T16:53:45.627Z,86.25
2022-12-27T16:56:20.904Z,85.71
2022-12-27T16:58:53.539Z,86.33
2022-12-27T17:01:30.462Z,85.97
2022-12-27T17:04:04.672Z,85.32
2022-12-27T17:06:53.856Z,85.70
2022-12-27T17:09:42.929Z,85.38
2022-12-27T17:12:18.499Z,85.77
2022-12-27T17:14:54.730Z,85.08
2022-12-27T17:17:27.769Z,85.02
2022-12-27T17:20:04.049Z,85.68
2022-12-27T17:22:39.342Z,84.22
2022-12-27T17:25:15.723Z,84.09
2022-12-27T17:27:56.374Z,83.37
2022-12-27T17:30:36.152Z,83.86
2022-12-27T17:33:17.985Z,83.96
2022-12-27T17:36:04.804Z,84.21
2022-12-27T17:38:42.398Z,83.55
2022-12-27T17:41:39.547Z,82.95
2022-12-27T17:44:36.975Z,82.54
2022-12-27T17:47:19.920Z,82.84
2022-12-27T17:49:53.738Z,83.70
2022-12-27T17:52:45.568Z,82.76
2022-12-27T17:55:37.264Z,84.01
2022-12-27T17:58:10.542Z,82.56
2022-12-27T18:00:51.216Z,81.87
2022-12-27T18:03:26.017Z,82.09
2022-12-27T18:05:58.640Z,81.95
2022-12-27T18:08:33.956Z,81.63
2022-12-27T18:11:07.300Z,81.72
2022-12-27T18:13:45.837Z,82.18
2022-12-27T18:16:20.038Z,82.89
2022-12-27T18:18:53.803Z,82.58
2022-12-27T18:21:28.192Z,83.08
2022-12-27T18:24:02.214Z,81.75
2022-12-27T18:26:36.930Z,81.37
2022-12-27T18:29:11.872Z,81.76
2022-12-27T18:31:47.972Z,82.97
2022-12-27T18:34:24.598Z,81.95
2022-12-27T18:36:59.811Z,82.19
2022-12-27T18:39:35.245Z,81.36
2022-12-27T18:42:16.675Z,81.82
2022-12-27T18:44:52.806Z,83.20
2022-12-27T18:47:26.900Z,82.14
2022-12-27T18:50:00.950Z,82.23
2022-12-27T18:52:35.715Z,81.85
2022-12-27T18:55:16.892Z,81.76
2022-12-27T18:57:49.547Z,82.52
2022-12-27T19:00:25.040Z,82.87
2022-12-27T19:03:13.624Z,83.11
2022-12-27T19:05:57.873Z,82.86
2022-12-27T19:08:34.094Z,84.26
2022-12-27T19:11:08.425Z,83.85
2022-12-27T19:13:43.151Z,83.80
2022-12-27T19:16:21.943Z,83.50
2022-12-27T19:18:55.871Z,83.55
2022-12-27T19:21:32.678Z,83.12
2022-12-27T19:24:19.887Z,83.22
2022-12-27T19:26:54.564Z,82.60
2022-12-27T19:29:28.500Z,82.49
2022-12-27T19:32:02.918Z,83.40
2022-12-27T19:34:46.714Z,82.81
2022-12-27T19:37:19.547Z,82.68
2022-12-27T19:39:52.363Z,82.88
2022-12-27T19:42:27.422Z,82.54
2022-12-27T19:45:00.031Z,83.07
2022-12-27T19:47:34.716Z,82.12
2022-12-27T19:50:07.780Z,83.15
2022-12-27T19:52:40.938Z,82.91
2022-12-27T19:55:18.812Z,82.40
2022-12-27T19:57:52.885Z,81.97
2022-12-27T20:00:25.572Z,82.06
2022-12-27T20:02:58.293Z,81.47
2022-12-27T20:06:12.601Z,81.59
2022-12-27T20:08:25.679Z,81.36
2022-12-27T20:10:58.352Z,81.81
2022-12-27T20:13:32.595Z,81.98
2022-12-27T20:16:05.587Z,82.81
2022-12-27T20:18:38.503Z,82.57
2022-12-27T20:21:12.984Z,82.73
2022-12-27T20:23:45.946Z,82.21
2022-12-27T20:26:20.192Z,82.19
2022-12-27T20:28:54.508Z,82.37
2022-12-27T20:31:27.272Z,82.39
2022-12-27T20:34:00.212Z,81.68
2022-12-27T20:36:32.826Z,82.90
2022-12-27T20:39:06.756Z,82.96
2022-12-27T20:41:39.388Z,82.33
2022-12-27T20:44:15.157Z,82.22
2022-12-27T20:46:48.424Z,83.71
2022-12-27T20:49:21.077Z,83.06
2022-12-27T20:51:53.810Z,82.77
2022-12-27T20:54:26.446Z,81.79
2022-12-27T20:56:59.031Z,83.69
2022-12-27T20:59:33.004Z,82.83
2022-12-27T21:02:05.764Z,81.55
2022-12-27T21:04:38.479Z,80.21
2022-12-27T21:07:11.219Z,81.50
2022-12-27T21:09:43.990Z,81.87
2022-12-27T21:12:16.686Z,80.96
2022-12-27T21:14:50.791Z,82.71
2022-12-27T21:17:23.444Z,81.17
2022-12-27T21:19:56.069Z,80.12
2022-12-27T21:22:28.682Z,81.88
2022-12-27T21:25:01.282Z,80.78
2022-12-27T21:27:33.914Z,81.36
2022-12-27T21:30:08.798Z,81.34
2022-12-27T21:32:41.431Z,81.17
2022-12-27T21:35:14.082Z,81.16
2022-12-27T21:37:46.691Z,82.01
2022-12-27T21:40:19.256Z,82.10
2022-12-27T21:42:51.931Z,81.44
2022-12-27T21:45:25.901Z,82.29
2022-12-27T21:47:58.526Z,82.24
2022-12-27T21:50:36.968Z,81.95
2022-12-27T21:53:09.875Z,81.19
2022-12-27T21:55:42.690Z,81.56
2022-12-27T21:58:15.322Z,80.74
2022-12-27T22:00:51.452Z,81.54
2022-12-27T22:03:27.507Z,81.07
2022-12-27T22:06:00.363Z,81.08
2022-12-27T22:08:32.960Z,81.25
2022-12-27T22:11:05.581Z,80.80
2022-12-27T22:13:38.261Z,81.18
2022-12-27T22:16:14.444Z,80.28
2022-12-27T22:18:47.360Z,79.66
2022-12-27T22:21:21.081Z,80.64
2022-12-27T22:23:54.684Z,81.14
2022-12-27T22:26:28.772Z,80.30
2022-12-27T22:29:02.059Z,81.39
2022-12-27T22:31:38.196Z,81.63
2022-12-27T22:34:10.925Z,81.68
2022-12-27T22:36:43.817Z,81.46
2022-12-27T22:39:16.404Z,80.76
2022-12-27T22:41:49.012Z,80.79
2022-12-27T22:44:21.616Z,80.42
2022-12-27T22:47:24.979Z,80.80
2022-12-27T22:49:51.622Z,81.07
2022-12-27T22:52:24.240Z,80.81
2022-12-27T22:55:04.000Z,81.27
2022-12-27T22:57:39.476Z,80.84
2022-12-27T23:00:14.143Z,80.81
2022-12-27T23:02:48.249Z,80.36
2022-12-27T23:05:20.945Z,81.21
2022-12-27T23:08:06.092Z,81.70
2022-12-27T23:10:40.747Z,81.66
2022-12-27T23:13:13.516Z,80.91
2022-12-27T23:15:46.425Z,80.53
2022-12-27T23:18:20.406Z,81.52
2022-12-27T23:21:20.222Z,81.28
2022-12-27T23:23:45.904Z,80.77
2022-12-27T23:26:19.619Z,82.07
2022-12-27T23:28:53.019Z,81.18
2022-12-27T23:31:26.291Z,80.55
2022-12-27T23:34:00.502Z,81.20
2022-12-27T23:36:33.341Z,81.43
2022-12-27T23:39:05.939Z,81.87
2022-12-27T23:41:38.579Z,80.99
2022-12-27T23:44:11.186Z,81.95
2022-12-27T23:46:44.224Z,81.30
2022-12-27T23:49:18.860Z,81.45
2022-12-27T23:51:52.342Z,81.92
2022-12-27T23:54:24.941Z,81.67
2022-12-27T23:56:57.642Z,81.93
2022-12-27T23:59:30.386Z,81.78
